createdAt,value
2023-04-07T00:01:57.500Z,12
2023-04-07T00:07:15.919Z,12
2023-04-07T00:12:57.397Z,12
2023-04-07T00:18:15.874Z,13
2023-04-07T00:23:15.888Z,12
2023-04-07T00:28:57.369Z,13
2023-04-07T00:33:57.561Z,12
2023-04-07T00:38:57.456Z,11
2023-04-07T00:44:15.893Z,12
2023-04-07T00:49:57.386Z,12
2023-04-07T00:55:15.892Z,13
2023-04-07T01:00:15.904Z,13
2023-04-07T01:05:15.913Z,11
2023-04-07T01:10:57.392Z,12
2023-04-07T01:16:16.182Z,13
2023-04-07T01:21:57.369Z,13
2023-04-07T01:26:57.392Z,13
2023-04-07T01:32:15.913Z,13
2023-04-07T01:37:57.371Z,11
2023-04-07T01:42:57.379Z,12
2023-04-07T01:48:15.958Z,13
2023-04-07T01:53:57.539Z,13
2023-04-07T01:58:57.361Z,13
2023-04-07T02:04:15.873Z,12
2023-04-07T02:09:15.910Z,12
2023-04-07T02:14:57.380Z,13
2023-04-07T02:19:57.374Z,12
2023-04-07T02:24:57.401Z,12
2023-04-07T02:30:15.914Z,8
2023-04-07T02:35:15.907Z,10
2023-04-07T02:40:57.383Z,9
2023-04-07T02:46:16.705Z,8
2023-04-07T02:51:57.385Z,7
2023-04-07T02:57:16.077Z,8
2023-04-07T03:02:57.453Z,7
2023-04-07T03:08:15.889Z,7
2023-04-07T03:13:15.917Z,7
2023-04-07T03:18:57.385Z,7
2023-04-07T03:23:57.376Z,6
2023-04-07T03:29:15.964Z,7
2023-04-07T03:34:57.378Z,9
2023-04-07T03:40:16.050Z,9
2023-04-07T03:45:57.398Z,9
2023-04-07T03:50:57.364Z,11
2023-04-07T03:56:15.909Z,11
2023-04-07T04:01:15.905Z,15
2023-04-07T04:06:57.390Z,16
2023-04-07T04:12:13.642Z,18
2023-04-07T04:17:15.896Z,20
2023-04-07T04:22:15.890Z,18
2023-04-07T04:27:57.388Z,19
2023-04-07T04:33:15.887Z,20
2023-04-07T04:38:16.174Z,20
2023-04-07T04:43:15.938Z,20
2023-04-07T04:48:57.395Z,19
2023-04-07T04:54:15.898Z,19
2023-04-07T04:59:15.929Z,20
2023-04-07T05:04:57.595Z,18
2023-04-07T05:09:57.363Z,16
2023-04-07T05:15:15.884Z,15
2023-04-07T05:25:15.890Z,17
2023-04-07T05:30:15.961Z,18
2023-04-07T05:35:57.465Z,19
2023-04-07T05:41:15.894Z,17
2023-04-07T05:46:16.058Z,18
2023-04-07T05:51:57.400Z,16
2023-04-07T05:57:15.907Z,18
2023-04-07T06:02:16.004Z,15
2023-04-07T06:07:57.385Z,18
2023-04-07T06:13:15.930Z,19
2023-04-07T06:18:57.366Z,18
2023-04-07T06:23:57.357Z,17
2023-04-07T06:28:57.368Z,17
2023-04-07T06:34:15.913Z,18
2023-04-07T06:39:57.396Z,17
2023-04-07T06:45:15.911Z,17
2023-04-07T06:50:57.388Z,15
2023-04-07T06:55:57.395Z,15
2023-04-07T07:01:15.919Z,14
2023-04-07T07:06:15.906Z,14
2023-04-07T07:11:57.403Z,12
2023-04-07T07:17:15.909Z,10
2023-04-07T07:22:15.977Z,10
2023-04-07T07:27:57.379Z,9
2023-04-07T07:32:57.458Z,9
2023-04-07T07:37:57.395Z,9
2023-04-07T07:46:16.014Z,9
2023-04-07T07:51:57.389Z,8
2023-04-07T07:56:57.448Z,7
2023-04-07T08:01:57.407Z,7
2023-04-07T08:07:15.912Z,7
2023-04-07T08:12:15.931Z,6
2023-04-07T08:17:57.420Z,6
2023-04-07T08:22:57.387Z,6
2023-04-07T08:28:15.917Z,6
2023-04-07T08:33:15.920Z,6
2023-04-07T08:38:15.925Z,5
2023-04-07T08:43:32.113Z,6
2023-04-07T08:48:57.416Z,5
2023-04-07T08:53:57.442Z,5
2023-04-07T08:59:15.885Z,6
2023-04-07T09:04:16.070Z,6
2023-04-07T09:09:57.355Z,6
2023-04-07T09:15:15.882Z,6
2023-04-07T09:20:15.884Z,6
2023-04-07T09:25:15.941Z,6
2023-04-07T09:30:57.380Z,7
2023-04-07T09:35:57.492Z,6
2023-04-07T09:41:15.955Z,6
2023-04-07T09:46:57.392Z,6
2023-04-07T09:52:15.954Z,7
2023-04-07T09:57:57.366Z,7
2023-04-07T10:02:57.463Z,7
2023-04-07T10:08:15.928Z,7
2023-04-07T10:13:57.415Z,7
2023-04-07T10:19:15.935Z,7
2023-04-07T10:24:15.978Z,7
2023-04-07T10:29:57.417Z,7
2023-04-07T10:35:15.921Z,7
2023-04-07T10:40:57.399Z,8
2023-04-07T10:46:15.961Z,8
2023-04-07T10:51:57.389Z,7
2023-04-07T10:56:57.419Z,6
2023-04-07T11:02:16.004Z,6
2023-04-07T11:07:15.921Z,6
2023-04-07T11:12:15.934Z,6
2023-04-07T11:17:57.458Z,6
2023-04-07T11:23:15.920Z,6
2023-04-07T11:28:57.424Z,6
2023-04-07T11:34:15.939Z,6
2023-04-07T11:39:15.952Z,6
2023-04-07T11:44:57.411Z,6
2023-04-07T11:49:57.468Z,7
2023-04-07T11:55:15.947Z,8
2023-04-07T12:00:57.422Z,8
2023-04-07T12:06:15.939Z,8
2023-04-07T12:11:15.954Z,8
2023-04-07T12:16:57.606Z,7
2023-04-07T12:22:15.952Z,7
2023-04-07T12:27:57.398Z,8
2023-04-07T12:32:57.434Z,8
2023-04-07T12:37:57.442Z,9
2023-04-07T12:43:15.927Z,9
2023-04-07T12:48:57.409Z,8
2023-04-07T12:53:57.424Z,9
2023-04-07T12:59:15.928Z,8
2023-04-07T13:04:26.114Z,9
2023-04-07T13:09:57.415Z,8
2023-04-07T13:15:15.946Z,10
2023-04-07T13:21:13.164Z,10
2023-04-07T13:26:15.931Z,10
2023-04-07T13:31:16.200Z,10
2023-04-07T13:36:15.964Z,10
2023-04-07T13:41:57.454Z,9
2023-04-07T13:47:15.957Z,9
2023-04-07T13:52:57.415Z,10
2023-04-07T13:57:57.433Z,10
2023-04-07T14:03:16.121Z,10
2023-04-07T14:08:57.414Z,10
2023-04-07T14:13:57.420Z,10
2023-04-07T14:18:57.493Z,10
2023-04-07T14:24:15.942Z,10
2023-04-07T14:29:57.427Z,10
2023-04-07T14:35:15.952Z,11
2023-04-07T14:41:09.824Z,11
2023-04-07T14:45:57.473Z,11
2023-04-07T14:51:15.933Z,11
2023-04-07T14:56:15.950Z,10
2023-04-07T15:01:57.621Z,10
2023-04-07T15:07:15.936Z,10
2023-04-07T15:12:16.008Z,9
2023-04-07T15:17:57.451Z,10
2023-04-07T15:22:57.433Z,11
2023-04-07T15:28:15.957Z,10
2023-04-07T15:33:57.453Z,10
2023-04-07T15:39:15.969Z,10
2023-04-07T15:44:57.426Z,9
2023-04-07T15:49:57.435Z,9
2023-04-07T15:54:57.447Z,9
2023-04-07T15:59:57.451Z,9
2023-04-07T16:05:16.002Z,9
2023-04-07T16:10:57.488Z,9
2023-04-07T16:16:16.003Z,9
2023-04-07T16:21:57.441Z,9
2023-04-07T16:26:57.443Z,9
2023-04-07T16:32:15.964Z,9
2023-04-07T16:37:57.424Z,9
2023-04-07T16:42:57.429Z,9
2023-04-07T16:47:57.483Z,9
2023-04-07T16:52:57.471Z,9
2023-04-07T16:58:15.996Z,8
2023-04-07T17:03:57.510Z,8
2023-04-07T17:09:16.071Z,7
2023-04-07T17:14:57.447Z,8
2023-04-07T17:20:15.988Z,9
2023-04-07T17:25:57.552Z,8
2023-04-07T17:30:57.515Z,8
2023-04-07T17:36:15.972Z,8
2023-04-07T17:41:15.963Z,9
2023-04-07T17:46:57.449Z,8
2023-04-07T17:52:15.991Z,8
2023-04-07T17:57:15.974Z,9
2023-04-07T18:02:57.626Z,10
2023-04-07T18:07:57.441Z,9
2023-04-07T18:12:57.442Z,10
2023-04-07T18:18:15.957Z,10
2023-04-07T18:23:15.960Z,10
2023-04-07T18:28:15.960Z,11
2023-04-07T18:33:15.980Z,10
2023-04-07T18:38:57.426Z,9
2023-04-07T18:43:57.442Z,11
2023-04-07T18:49:15.974Z,10
2023-04-07T18:54:57.406Z,10
2023-04-07T18:59:57.474Z,11
2023-04-07T19:05:15.981Z,11
2023-04-07T19:10:57.429Z,11
2023-04-07T19:15:57.545Z,11
2023-04-07T19:21:15.975Z,11
2023-04-07T19:26:15.997Z,11
2023-04-07T19:31:57.522Z,11
2023-04-07T19:37:16.035Z,12
2023-04-07T19:42:16.176Z,12
2023-04-07T19:47:16.201Z,10
2023-04-07T19:52:57.447Z,12
2023-04-07T19:57:57.517Z,11
2023-04-07T20:03:16.107Z,10
2023-04-07T20:08:57.443Z,11
2023-04-07T20:14:15.965Z,12
2023-04-07T20:19:15.969Z,14
2023-04-07T20:25:19.539Z,13
2023-04-07T20:30:57.502Z,15
2023-04-07T20:36:15.984Z,14
2023-04-07T20:41:57.604Z,15
2023-04-07T20:46:57.480Z,13
2023-04-07T20:51:57.496Z,16
2023-04-07T20:57:15.985Z,16
2023-04-07T21:02:16.352Z,16
2023-04-07T21:07:57.440Z,15
2023-04-07T21:13:16.007Z,16
2023-04-07T21:18:57.485Z,16
2023-04-07T21:24:15.984Z,16
2023-04-07T21:29:16.001Z,18
2023-04-07T21:34:57.454Z,17
2023-04-07T21:39:57.484Z,18
2023-04-07T21:45:16.009Z,19
2023-04-07T21:50:57.457Z,19
2023-04-07T21:55:57.468Z,18
2023-04-07T22:00:57.473Z,19
2023-04-07T22:11:57.473Z,18
2023-04-07T22:17:15.996Z,20
2023-04-07T22:22:57.905Z,22
2023-04-07T22:28:15.982Z,22
2023-04-07T22:33:16.043Z,23
2023-04-07T22:38:57.456Z,23
2023-04-07T22:43:57.446Z,23
2023-04-07T22:48:57.520Z,24
2023-04-07T22:54:15.981Z,25
2023-04-07T22:59:16.002Z,26
2023-04-07T23:04:57.475Z,25
2023-04-07T23:09:57.469Z,26
2023-04-07T23:14:57.485Z,25
2023-04-07T23:20:15.985Z,24
2023-04-07T23:25:57.461Z,25
2023-04-07T23:30:57.567Z,25
2023-04-07T23:36:15.976Z,25
2023-04-07T23:41:57.442Z,27
2023-04-07T23:46:57.468Z,27
2023-04-07T23:52:15.977Z,26
2023-04-07T23:57:57.458Z,27
